createdAt,value
2023-04-21T00:00:31.740Z,96583.31
2023-04-21T00:01:34.451Z,96582.72
2023-04-21T00:02:40.070Z,96589.72
2023-04-21T00:03:42.355Z,96586.53
2023-04-21T00:04:47.277Z,96581.91
2023-04-21T00:05:50.108Z,96587.69
2023-04-21T00:06:53.396Z,96583.69
2023-04-21T00:07:55.261Z,96585.28
2023-04-21T00:08:57.084Z,96584.31
2023-04-21T00:09:58.914Z,96583.09
2023-04-21T00:11:00.745Z,96584.72
2023-04-21T00:12:02.500Z,96584.72
2023-04-21T00:13:04.302Z,96571.91
2023-04-21T00:14:06.135Z,96574.09
2023-04-21T00:15:08.251Z,96569.50
2023-04-21T00:16:10.196Z,96579.47
2023-04-21T00:17:11.969Z,96567.06
2023-04-21T00:18:14.449Z,96573.06
2023-04-21T00:19:16.285Z,96561.47
2023-04-21T00:20:18.232Z,96575.06
2023-04-21T00:21:20.104Z,96575.06
2023-04-21T00:22:22.421Z,96571.06
2023-04-21T00:23:25.128Z,96560.06
2023-04-21T00:24:27.101Z,96560.66
2023-04-21T00:25:28.917Z,96567.50
2023-04-21T00:26:30.703Z,96568.28
2023-04-21T00:27:32.502Z,96564.66
2023-04-21T00:28:34.297Z,96563.88
2023-04-21T00:29:36.208Z,96562.28
2023-04-21T00:30:37.942Z,96561.09
2023-04-21T00:31:39.761Z,96564.25
2023-04-21T00:32:41.631Z,96565.44
2023-04-21T00:33:43.529Z,96567.03
2023-04-21T00:34:45.485Z,96561.03
2023-04-21T00:35:47.309Z,96556.44
2023-04-21T00:36:49.205Z,96552.84
2023-04-21T00:37:51.192Z,96556.22
2023-04-21T00:38:52.990Z,96559.59
2023-04-21T00:39:54.745Z,96552.19
2023-04-21T00:40:56.655Z,96556.97
2023-04-21T00:41:58.478Z,96543.97
2023-04-21T00:43:00.276Z,96547.75
2023-04-21T00:44:09.784Z,96544.75
2023-04-21T00:45:11.828Z,96549.53
2023-04-21T00:46:13.631Z,96547.34
2023-04-21T00:47:15.631Z,96538.97
2023-04-21T00:48:17.662Z,96545.38
2023-04-21T00:49:19.677Z,96543.38
2023-04-21T00:50:21.614Z,96545.00
2023-04-21T00:51:23.462Z,96538.59
2023-04-21T00:52:25.545Z,96541.19
2023-04-21T00:53:27.262Z,96534.97
2023-04-21T00:54:29.131Z,96536.59
2023-04-21T00:55:31.516Z,96539.19
2023-04-21T00:56:34.015Z,96534.19
2023-04-21T00:57:36.710Z,96532.19
2023-04-21T00:58:40.633Z,96538.78
2023-04-21T00:59:43.777Z,96539.56
2023-04-21T01:00:45.723Z,96538.59
2023-04-21T01:01:47.500Z,96541.00
2023-04-21T01:02:49.603Z,96536.59
2023-04-21T01:03:52.100Z,96541.38
2023-04-21T01:04:54.216Z,96540.56
2023-04-21T01:05:56.692Z,96538.53
2023-04-21T01:06:59.203Z,96539.69
2023-04-21T01:08:02.169Z,96546.09
2023-04-21T01:09:06.928Z,96538.88
2023-04-21T01:10:10.233Z,96547.28
2023-04-21T01:11:12.666Z,96550.91
2023-04-21T01:12:14.496Z,96552.91
2023-04-21T01:13:19.645Z,96554.28
2023-04-21T01:14:21.395Z,96557.31
2023-04-21T01:15:23.223Z,96544.94
2023-04-21T01:16:25.159Z,96540.09
2023-04-21T01:17:27.263Z,96546.09
2023-04-21T01:18:29.516Z,96544.50
2023-04-21T01:19:33.527Z,96540.88
2023-04-21T01:20:36.504Z,96540.69
2023-04-21T01:21:42.079Z,96546.44
2023-04-21T01:22:45.482Z,96550.66
2023-04-21T01:23:47.385Z,96550.84
2023-04-21T01:24:49.840Z,96541.47
2023-04-21T01:25:52.239Z,96545.63
2023-04-21T01:26:54.068Z,96540.63
2023-04-21T01:27:55.832Z,96545.81
2023-04-21T01:28:57.864Z,96543.03
2023-04-21T01:29:59.738Z,96539.22
2023-04-21T01:31:02.292Z,96542.44
2023-04-21T01:32:05.660Z,96532.47
2023-04-21T01:33:07.642Z,96540.06
2023-04-21T01:34:10.947Z,96546.06
2023-04-21T01:35:12.785Z,96545.06
2023-04-21T01:36:14.659Z,96541.28
2023-04-21T01:37:17.622Z,96545.47
2023-04-21T01:38:19.779Z,96542.88
2023-04-21T01:39:21.712Z,96543.66
2023-04-21T01:40:23.497Z,96544.50
2023-04-21T01:41:25.286Z,96550.28
2023-04-21T01:42:28.490Z,96548.06
2023-04-21T01:43:30.355Z,96543.66
2023-04-21T01:44:32.226Z,96542.84
2023-04-21T01:45:34.168Z,96541.47
2023-04-21T01:46:36.023Z,96541.47
2023-04-21T01:47:37.937Z,96541.06
2023-04-21T01:48:39.695Z,96544.06
2023-04-21T01:49:41.558Z,96543.84
2023-04-21T01:50:43.373Z,96548.06
2023-04-21T01:51:45.267Z,96541.06
2023-04-21T01:52:47.043Z,96544.84
2023-04-21T01:53:48.879Z,96540.63
2023-04-21T01:54:50.911Z,96554.44
2023-04-21T01:55:52.845Z,96544.84
2023-04-21T01:56:54.732Z,96549.84
2023-04-21T01:58:00.027Z,96543.66
2023-04-21T01:59:01.884Z,96541.84
2023-04-21T02:00:04.566Z,96540.44
2023-04-21T02:01:06.346Z,96546.03
2023-04-21T02:02:08.454Z,96539.59
2023-04-21T02:03:10.419Z,96542.41
2023-04-21T02:04:12.540Z,96550.75
2023-04-21T02:05:14.393Z,96550.75
2023-04-21T02:06:18.098Z,96550.16
2023-04-21T02:07:21.266Z,96548.34
2023-04-21T02:08:23.070Z,96552.72
2023-04-21T02:09:24.959Z,96553.34
2023-04-21T02:10:26.788Z,96554.53
2023-04-21T02:11:28.554Z,96554.72
2023-04-21T02:12:30.467Z,96555.31
2023-04-21T02:13:32.208Z,96552.09
2023-04-21T02:14:34.044Z,96558.25
2023-04-21T02:15:37.324Z,96565.88
2023-04-21T02:16:39.159Z,96560.06
2023-04-21T02:17:43.144Z,96560.25
2023-04-21T02:18:45.040Z,96550.88
2023-04-21T02:19:48.162Z,96559.47
2023-04-21T02:20:50.121Z,96556.69
2023-04-21T02:21:51.966Z,96554.69
2023-04-21T02:22:53.811Z,96562.28
2023-04-21T02:23:55.692Z,96548.50
2023-04-21T02:24:57.540Z,96558.88
2023-04-21T02:25:59.392Z,96565.50
2023-04-21T02:27:03.395Z,96562.69
2023-04-21T02:28:05.226Z,96557.50
2023-04-21T02:29:07.064Z,96560.91
2023-04-21T02:30:09.225Z,96561.09
2023-04-21T02:31:11.632Z,96557.50
2023-04-21T02:32:25.009Z,96552.47
2023-04-21T02:33:29.465Z,96556.22
2023-04-21T02:34:31.247Z,96554.59
2023-04-21T02:35:34.096Z,96551.03
2023-04-21T02:36:35.940Z,96551.56
2023-04-21T02:37:37.880Z,96550.16
2023-04-21T02:38:40.264Z,96558.56
2023-04-21T02:39:44.015Z,96550.41
2023-04-21T02:40:45.849Z,96549.97
2023-04-21T02:41:47.777Z,96555.28
2023-04-21T02:42:49.656Z,96551.84
2023-04-21T02:43:51.517Z,96553.63
2023-04-21T02:44:53.369Z,96559.88
2023-04-21T02:45:55.359Z,96555.28
2023-04-21T02:46:57.167Z,96557.31
2023-04-21T02:47:59.786Z,96549.72
2023-04-21T02:49:01.703Z,96557.69
2023-04-21T02:50:04.394Z,96548.91
2023-04-21T02:51:06.203Z,96551.94
2023-04-21T02:52:08.023Z,96551.53
2023-04-21T02:53:09.754Z,96552.16
2023-04-21T02:54:11.615Z,96548.59
2023-04-21T02:55:13.384Z,96551.38
2023-04-21T02:56:15.186Z,96544.56
2023-04-21T02:57:17.313Z,96540.34
2023-04-21T02:58:19.156Z,96555.66
2023-04-21T02:59:21.447Z,96545.44
2023-04-21T03:00:23.415Z,96543.59
2023-04-21T03:01:25.279Z,96540.38
2023-04-21T03:02:27.170Z,96542.78
2023-04-21T03:03:29.507Z,96537.59
2023-04-21T03:04:33.017Z,96541.19
2023-04-21T03:05:34.896Z,96545.00
2023-04-21T03:06:37.147Z,96547.16
2023-04-21T03:07:39.146Z,96542.69
2023-04-21T03:08:41.074Z,96539.25
2023-04-21T03:09:42.941Z,96537.44
2023-04-21T03:10:44.781Z,96538.69
2023-04-21T03:11:46.564Z,96541.03
2023-04-21T03:12:48.338Z,96541.34
2023-04-21T03:13:50.138Z,96537.84
2023-04-21T03:14:51.956Z,96539.75
2023-04-21T03:15:53.808Z,96541.38
2023-04-21T03:16:55.737Z,96539.22
2023-04-21T03:17:57.714Z,96541.22
2023-04-21T03:18:59.525Z,96537.22
2023-04-21T03:20:01.470Z,96534.88
2023-04-21T03:21:04.684Z,96542.69
2023-04-21T03:22:06.814Z,96540.19
2023-04-21T03:23:08.632Z,96546.22
2023-04-21T03:24:10.394Z,96549.84
2023-04-21T03:25:12.306Z,96550.09
2023-04-21T03:26:14.098Z,96548.31
2023-04-21T03:27:15.900Z,96548.31
2023-04-21T03:28:17.986Z,96541.88
2023-04-21T03:29:20.019Z,96548.31
2023-04-21T03:30:22.606Z,96545.53
2023-04-21T03:31:24.490Z,96548.31
2023-04-21T03:32:26.316Z,96546.50
2023-04-21T03:33:28.228Z,96545.28
2023-04-21T03:34:30.026Z,96543.47
2023-04-21T03:35:31.859Z,96548.31
2023-04-21T03:36:33.680Z,96546.31
2023-04-21T03:37:35.458Z,96539.72
2023-04-21T03:38:37.289Z,96541.13
2023-04-21T03:39:39.102Z,96543.34
2023-04-21T03:40:41.311Z,96544.69
2023-04-21T03:41:43.074Z,96541.88
2023-04-21T03:42:44.861Z,96545.09
2023-04-21T03:43:46.654Z,96543.91
2023-04-21T03:44:48.495Z,96537.53
2023-04-21T03:45:50.503Z,96548.75
2023-04-21T03:46:55.651Z,96541.75
2023-04-21T03:47:57.581Z,96537.53
2023-04-21T03:49:00.216Z,96540.75
2023-04-21T03:50:06.343Z,96548.53
2023-04-21T03:51:08.120Z,96547.91
2023-04-21T03:52:09.929Z,96544.34
2023-04-21T03:53:12.585Z,96545.13
2023-04-21T03:54:14.361Z,96537.97
2023-04-21T03:55:16.167Z,96542.97
2023-04-21T03:56:18.026Z,96542.97
2023-04-21T03:57:19.888Z,96547.16
2023-04-21T03:58:21.718Z,96549.56
2023-04-21T03:59:23.482Z,96552.97
2023-04-21T04:00:25.317Z,96556.38
2023-04-21T04:01:27.124Z,96552.78
2023-04-21T04:02:29.713Z,96557.97
2023-04-21T04:03:31.733Z,96561.56
2023-04-21T04:04:33.742Z,96559.94
2023-04-21T04:05:38.668Z,96563.13
2023-04-21T04:06:41.377Z,96559.91
2023-04-21T04:07:44.611Z,96565.09
2023-04-21T04:08:46.719Z,96559.09
2023-04-21T04:09:48.516Z,96554.72
2023-04-21T04:10:50.349Z,96551.50
2023-04-21T04:11:52.241Z,96551.69
2023-04-21T04:12:55.566Z,96566.41
2023-04-21T04:13:57.305Z,96554.16
2023-04-21T04:14:59.221Z,96560.19
2023-04-21T04:16:01.544Z,96554.00
2023-04-21T04:17:03.579Z,96560.78
2023-04-21T04:18:05.547Z,96552.22
2023-04-21T04:19:07.491Z,96550.25
2023-04-21T04:20:10.688Z,96559.00
2023-04-21T04:21:12.444Z,96555.44
2023-04-21T04:22:14.310Z,96558.38
2023-04-21T04:23:16.390Z,96559.00
2023-04-21T04:24:18.133Z,96555.22
2023-04-21T04:25:19.881Z,96557.28
2023-04-21T04:26:24.952Z,96560.47
2023-04-21T04:27:27.103Z,96553.50
2023-04-21T04:28:29.456Z,96559.47
2023-04-21T04:29:32.357Z,96557.66
2023-04-21T04:30:35.532Z,96554.09
2023-04-21T04:31:38.059Z,96559.91
2023-04-21T04:32:39.991Z,96556.69
2023-04-21T04:33:43.098Z,96559.47
2023-04-21T04:34:44.882Z,96560.66
2023-04-21T04:35:47.884Z,96561.44
2023-04-21T04:36:50.530Z,96562.47
2023-04-21T04:37:52.471Z,96559.88
2023-04-21T04:38:54.336Z,96552.69
2023-04-21T04:39:56.853Z,96560.28
2023-04-21T04:40:59.218Z,96558.50
2023-04-21T04:42:01.699Z,96560.88
2023-04-21T04:43:03.795Z,96556.09
2023-04-21T04:44:06.428Z,96567.22
2023-04-21T04:45:09.522Z,96557.19
2023-04-21T04:46:13.310Z,96562.03
2023-04-21T04:47:15.566Z,96560.31
2023-04-21T04:48:18.556Z,96559.50
2023-04-21T04:49:21.694Z,96559.41
2023-04-21T04:50:24.838Z,96558.63
2023-04-21T04:51:26.666Z,96563.31
2023-04-21T04:52:28.576Z,96560.22
2023-04-21T04:53:30.436Z,96564.16
2023-04-21T04:54:32.268Z,96556.38
2023-04-21T04:55:34.082Z,96559.03
2023-04-21T04:56:35.941Z,96560.47
2023-04-21T04:57:37.761Z,96559.75
2023-04-21T04:58:39.623Z,96552.38
2023-04-21T04:59:41.396Z,96555.25
2023-04-21T05:00:43.215Z,96555.50
2023-04-21T05:01:45.197Z,96555.91
2023-04-21T05:02:47.303Z,96555.72
2023-04-21T05:03:49.457Z,96556.34
2023-04-21T05:04:51.433Z,96561.78
2023-04-21T05:05:54.435Z,96557.84
2023-04-21T05:06:56.288Z,96561.84
2023-04-21T05:07:58.992Z,96562.47
2023-04-21T05:09:00.804Z,96565.69
2023-04-21T05:10:04.813Z,96561.53
2023-04-21T05:11:07.058Z,96559.78
2023-04-21T05:12:08.855Z,96555.44
2023-04-21T05:13:10.816Z,96555.03
2023-04-21T05:14:12.648Z,96555.47
2023-04-21T05:15:14.400Z,96558.50
2023-04-21T05:16:16.376Z,96558.50
2023-04-21T05:17:18.286Z,96562.25
2023-04-21T05:18:20.077Z,96568.66
2023-04-21T05:19:21.892Z,96559.47
2023-04-21T05:20:23.818Z,96564.31
2023-04-21T05:21:28.812Z,96560.69
2023-04-21T05:22:30.610Z,96565.09
2023-04-21T05:23:32.453Z,96567.06
2023-04-21T05:24:34.608Z,96566.31
2023-04-21T05:25:38.742Z,96554.75
2023-04-21T05:26:40.586Z,96563.59
2023-04-21T05:27:43.086Z,96565.78
2023-04-21T05:28:44.951Z,96568.81
2023-04-21T05:29:47.649Z,96571.22
2023-04-21T05:30:49.522Z,96573.81
2023-04-21T05:31:51.338Z,96574.25
2023-04-21T05:32:53.232Z,96580.66
2023-04-21T05:33:55.040Z,96575.91
2023-04-21T05:34:56.948Z,96571.34
2023-04-21T05:35:58.755Z,96579.13
2023-04-21T05:37:00.629Z,96569.34
2023-04-21T05:38:02.462Z,96570.56
2023-04-21T05:39:04.297Z,96573.56
2023-04-21T05:40:06.441Z,96570.59
2023-04-21T05:41:08.804Z,96569.81
2023-04-21T05:42:11.485Z,96567.22
2023-04-21T05:43:14.609Z,96560.59
2023-04-21T05:44:19.437Z,96568.19
2023-04-21T05:45:21.414Z,96570.41
2023-04-21T05:46:23.241Z,96565.84
2023-04-21T05:47:25.080Z,96568.81
2023-04-21T05:48:27.084Z,96559.78
2023-04-21T05:49:28.966Z,96568.59
2023-04-21T05:50:34.251Z,96566.38
2023-04-21T05:51:36.117Z,96559.03
2023-04-21T05:52:38.435Z,96563.44
2023-04-21T05:53:40.585Z,96564.22
2023-04-21T05:54:42.980Z,96562.84
2023-04-21T05:55:44.711Z,96569.47
2023-04-21T05:56:47.565Z,96571.50
2023-04-21T05:57:49.296Z,96567.50
2023-04-21T05:58:51.227Z,96567.94
2023-04-21T05:59:53.009Z,96567.53
2023-04-21T06:00:54.683Z,96569.16
2023-04-21T06:01:56.422Z,96568.75
2023-04-21T06:02:58.443Z,96570.16
2023-04-21T06:04:01.722Z,96565.19
2023-04-21T06:05:04.208Z,96562.38
2023-04-21T06:06:06.753Z,96567.19
2023-04-21T06:07:09.884Z,96564.56
2023-04-21T06:08:11.766Z,96560.78
2023-04-21T06:09:16.683Z,96563.81
2023-04-21T06:10:18.821Z,96560.81
2023-04-21T06:11:20.765Z,96562.44
2023-04-21T06:12:22.456Z,96562.69
2023-04-21T06:13:24.318Z,96557.69
2023-04-21T06:14:26.150Z,96557.91
2023-04-21T06:15:28.003Z,96558.13
2023-04-21T06:16:32.637Z,96554.13
2023-04-21T06:17:34.629Z,96544.94
2023-04-21T06:18:36.467Z,96556.19
2023-04-21T06:19:41.267Z,96557.81
2023-04-21T06:20:49.817Z,96552.63
2023-04-21T06:21:52.057Z,96551.84
2023-04-21T06:22:54.325Z,96552.06
2023-04-21T06:23:56.151Z,96550.28
2023-04-21T06:24:58.821Z,96547.06
2023-04-21T06:26:01.958Z,96547.66
2023-04-21T06:27:03.984Z,96547.09
2023-04-21T06:28:06.080Z,96546.69
2023-04-21T06:29:07.962Z,96548.69
2023-04-21T06:30:09.926Z,96545.50
2023-04-21T06:31:15.608Z,96543.09
2023-04-21T06:32:17.659Z,96554.31
2023-04-21T06:33:19.381Z,96546.91
2023-04-21T06:34:21.847Z,96553.09
2023-04-21T06:35:24.784Z,96543.28
2023-04-21T06:36:27.884Z,96548.69
2023-04-21T06:37:29.735Z,96544.88
2023-04-21T06:38:31.746Z,96542.69
2023-04-21T06:39:33.532Z,96547.88
2023-04-21T06:40:35.370Z,96541.84
2023-04-21T06:41:37.134Z,96543.88
2023-04-21T06:42:39.020Z,96548.47
2023-04-21T06:43:41.089Z,96544.25
2023-04-21T06:44:42.960Z,96539.44
2023-04-21T06:45:45.688Z,96539.81
2023-04-21T06:46:47.721Z,96533.78
2023-04-21T06:47:49.625Z,96533.19
2023-04-21T06:48:51.408Z,96532.56
2023-04-21T06:49:53.259Z,96539.75
2023-04-21T06:50:56.706Z,96536.53
2023-04-21T06:51:58.576Z,96535.72
2023-04-21T06:53:00.403Z,96531.47
2023-04-21T06:54:02.289Z,96526.44
2023-04-21T06:55:04.300Z,96531.81
2023-04-21T06:56:06.698Z,96527.59
2023-04-21T06:57:08.468Z,96531.97
2023-04-21T06:58:10.185Z,96525.94
2023-04-21T06:59:12.024Z,96531.31
2023-04-21T07:00:14.091Z,96522.69
2023-04-21T07:01:16.027Z,96519.03
2023-04-21T07:02:17.867Z,96525.00
2023-04-21T07:03:19.900Z,96526.56
2023-04-21T07:04:22.015Z,96520.88
2023-04-21T07:05:23.877Z,96527.66
2023-04-21T07:06:26.054Z,96524.34
2023-04-21T07:07:27.830Z,96526.28
2023-04-21T07:08:29.694Z,96520.63
2023-04-21T07:09:34.087Z,96520.78
2023-04-21T07:10:36.198Z,96523.34
2023-04-21T07:11:38.124Z,96523.06
2023-04-21T07:12:39.910Z,96522.75
2023-04-21T07:13:41.684Z,96518.03
2023-04-21T07:14:43.485Z,96517.81
2023-04-21T07:15:45.331Z,96517.34
2023-04-21T07:16:47.293Z,96515.22
2023-04-21T07:17:49.140Z,96521.34
2023-04-21T07:18:51.036Z,96522.06
2023-04-21T07:19:52.980Z,96521.97
2023-04-21T07:20:54.771Z,96523.84
2023-04-21T07:21:56.596Z,96519.75
2023-04-21T07:22:58.392Z,96508.16
2023-04-21T07:24:00.180Z,96518.19
2023-04-21T07:25:06.553Z,96509.22
2023-04-21T07:26:08.328Z,96514.56
2023-04-21T07:27:10.242Z,96527.09
2023-04-21T07:28:12.060Z,96512.75
2023-04-21T07:29:13.863Z,96522.69
2023-04-21T07:30:15.787Z,96513.72
2023-04-21T07:31:17.657Z,96508.47
2023-04-21T07:32:21.263Z,96512.22
2023-04-21T07:33:23.055Z,96519.97
2023-04-21T07:34:25.001Z,96513.81
2023-04-21T07:35:27.459Z,96509.69
2023-04-21T07:36:31.113Z,96511.19
2023-04-21T07:37:33.256Z,96520.97
2023-04-21T07:38:35.181Z,96520.38
2023-04-21T07:39:36.948Z,96516.63
2023-04-21T07:40:38.838Z,96517.94
2023-04-21T07:41:40.917Z,96519.41
2023-04-21T07:42:42.772Z,96516.22
2023-04-21T07:43:44.586Z,96506.59
2023-04-21T07:44:46.525Z,96520.28
2023-04-21T07:45:48.373Z,96514.00
2023-04-21T07:46:50.190Z,96527.91
2023-04-21T07:47:52.179Z,96515.94
2023-04-21T07:48:54.018Z,96513.31
2023-04-21T07:49:56.462Z,96507.59
2023-04-21T07:51:01.837Z,96516.81
2023-04-21T07:52:03.637Z,96509.84
2023-04-21T07:53:05.731Z,96516.44
2023-04-21T07:54:07.621Z,96516.28
2023-04-21T07:55:09.669Z,96518.25
2023-04-21T07:56:13.425Z,96521.59
2023-04-21T07:57:15.292Z,96521.97
2023-04-21T07:58:17.265Z,96523.31
2023-04-21T07:59:19.385Z,96521.56
2023-04-21T08:00:21.465Z,96519.50
2023-04-21T08:01:24.057Z,96520.63
2023-04-21T08:02:26.089Z,96519.13
2023-04-21T08:03:30.040Z,96525.00
2023-04-21T08:04:32.356Z,96514.09
2023-04-21T08:05:37.529Z,96523.34
2023-04-21T08:06:42.203Z,96521.50
2023-04-21T08:07:44.135Z,96519.22
2023-04-21T08:08:46.132Z,96520.00
2023-04-21T08:09:47.975Z,96530.50
2023-04-21T08:10:49.853Z,96534.81
2023-04-21T08:11:51.655Z,96522.69
2023-04-21T08:12:53.457Z,96523.50
2023-04-21T08:13:55.325Z,96527.25
2023-04-21T08:14:57.133Z,96531.00
2023-04-21T08:15:59.049Z,96535.84
2023-04-21T08:17:01.163Z,96536.78
2023-04-21T08:18:03.342Z,96534.47
2023-04-21T08:19:05.823Z,96550.00
2023-04-21T08:20:08.262Z,96535.81
2023-04-21T08:21:10.075Z,96537.97
2023-04-21T08:22:12.323Z,96529.28
2023-04-21T08:23:14.930Z,96523.53
2023-04-21T08:24:16.852Z,96533.81
2023-04-21T08:25:18.704Z,96527.28
2023-04-21T08:26:21.939Z,96529.50
2023-04-21T08:27:23.711Z,96528.75
2023-04-21T08:28:25.544Z,96532.50
2023-04-21T08:29:27.705Z,96526.25
2023-04-21T08:30:29.643Z,96518.13
2023-04-21T08:31:31.657Z,96525.81
2023-04-21T08:32:34.016Z,96527.38
2023-04-21T08:33:39.258Z,96524.84
2023-04-21T08:34:43.370Z,96516.72
2023-04-21T08:35:59.306Z,96512.56
2023-04-21T08:37:06.198Z,96522.31
2023-04-21T08:38:09.646Z,96521.34
2023-04-21T08:39:11.560Z,96524.06
2023-04-21T08:40:13.789Z,96527.72
2023-04-21T08:41:15.619Z,96528.22
2023-04-21T08:42:18.117Z,96517.19
2023-04-21T08:43:19.933Z,96512.97
2023-04-21T08:44:21.912Z,96505.63
2023-04-21T08:45:24.010Z,96524.88
2023-04-21T08:46:26.577Z,96513.56
2023-04-21T08:47:29.186Z,96526.50
2023-04-21T08:48:31.837Z,96526.28
2023-04-21T08:49:33.689Z,96515.53
2023-04-21T08:50:36.928Z,96516.06
2023-04-21T08:51:38.747Z,96514.53
2023-04-21T08:52:40.560Z,96521.44
2023-04-21T08:53:42.647Z,96506.97
2023-04-21T08:54:44.686Z,96511.25
2023-04-21T08:55:53.635Z,96512.34
2023-04-21T08:57:14.152Z,96508.47
2023-04-21T08:58:16.910Z,96517.00
2023-04-21T08:59:18.954Z,96514.66
2023-04-21T09:00:21.612Z,96510.13
2023-04-21T09:01:23.526Z,96513.06
2023-04-21T09:02:25.567Z,96511.50
2023-04-21T09:03:28.018Z,96516.28
2023-04-21T09:04:31.104Z,96517.88
2023-04-21T09:05:33.961Z,96519.97
2023-04-21T09:06:46.411Z,96510.75
2023-04-21T09:07:48.353Z,96509.22
2023-04-21T09:08:56.576Z,96517.72
2023-04-21T09:09:58.848Z,96511.13
2023-04-21T09:11:01.865Z,96509.63
2023-04-21T09:12:03.780Z,96507.81
2023-04-21T09:13:12.068Z,96505.97
2023-04-21T09:14:13.860Z,96509.69
2023-04-21T09:15:17.926Z,96512.56
2023-04-21T09:16:24.090Z,96520.16
2023-04-21T09:17:32.926Z,96520.69
2023-04-21T09:18:36.909Z,96511.78
2023-04-21T09:19:38.718Z,96506.81
2023-04-21T09:20:40.794Z,96513.41
2023-04-21T09:21:44.166Z,96506.88
2023-04-21T09:22:46.034Z,96509.34
2023-04-21T09:23:50.966Z,96505.38
2023-04-21T09:25:00.446Z,96514.13
2023-04-21T09:26:03.764Z,96512.03
2023-04-21T09:27:05.774Z,96511.22
2023-04-21T09:28:08.953Z,96513.91
2023-04-21T09:29:10.780Z,96505.50
2023-04-21T09:30:13.967Z,96498.44
2023-04-21T09:31:25.412Z,96509.53
2023-04-21T09:32:27.461Z,96510.34
2023-04-21T09:33:42.254Z,96509.03
2023-04-21T09:34:51.467Z,96510.09
2023-04-21T09:35:54.976Z,96508.78
2023-04-21T09:37:03.241Z,96512.75
2023-04-21T09:38:09.921Z,96504.63
2023-04-21T09:40:18.150Z,96519.34
2023-04-21T09:41:20.247Z,96509.63
2023-04-21T09:42:28.518Z,96518.38
2023-04-21T09:43:30.561Z,96512.06
2023-04-21T09:44:39.769Z,96511.88
2023-04-21T09:45:53.558Z,96515.06
2023-04-21T09:47:04.168Z,96507.41
2023-04-21T09:48:07.977Z,96507.19
2023-04-21T09:49:10.939Z,96501.13
2023-04-21T09:50:13.573Z,96502.44
2023-04-21T09:51:25.471Z,96499.31
2023-04-21T09:52:34.917Z,96497.19
2023-04-21T09:53:38.604Z,96503.00
2023-04-21T09:54:45.896Z,96505.66
2023-04-21T09:55:49.750Z,96502.72
2023-04-21T09:56:53.747Z,96506.69
2023-04-21T09:58:02.479Z,96514.09
2023-04-21T09:59:06.719Z,96515.97
2023-04-21T10:00:10.037Z,96504.88
2023-04-21T10:01:13.066Z,96504.59
2023-04-21T10:02:17.300Z,96497.75
2023-04-21T10:03:21.259Z,96499.34
2023-04-21T10:04:25.654Z,96487.22
2023-04-21T10:05:29.079Z,96490.91
2023-04-21T10:06:32.337Z,96497.78
2023-04-21T10:07:34.130Z,96498.31
2023-04-21T10:08:36.957Z,96501.22
2023-04-21T10:09:41.740Z,96494.66
2023-04-21T10:10:45.751Z,96501.00
2023-04-21T10:11:47.700Z,96499.41
2023-04-21T10:12:50.591Z,96500.97
2023-04-21T10:13:52.452Z,96506.28
2023-04-21T10:14:55.334Z,96501.81
2023-04-21T10:16:09.811Z,96501.50
2023-04-21T10:17:12.081Z,96507.09
2023-04-21T10:18:19.036Z,96501.53
2023-04-21T10:19:25.628Z,96502.59
2023-04-21T10:20:27.444Z,96498.31
2023-04-21T10:21:29.265Z,96503.03
2023-04-21T10:22:32.452Z,96497.50
2023-04-21T10:23:36.975Z,96500.66
2023-04-21T10:24:42.942Z,96493.50
2023-04-21T10:25:49.001Z,96507.78
2023-04-21T10:26:54.049Z,96503.00
2023-04-21T10:27:56.829Z,96501.16
2023-04-21T10:29:00.037Z,96498.50
2023-04-21T10:30:02.576Z,96497.97
2023-04-21T10:31:40.033Z,96487.88
2023-04-21T10:32:42.950Z,96492.09
2023-04-21T10:34:06.078Z,96490.94
2023-04-21T10:35:11.885Z,96494.34
2023-04-21T10:36:15.866Z,96487.97
2023-04-21T10:37:17.902Z,96488.78
2023-04-21T10:38:34.071Z,96490.09
2023-04-21T10:39:37.038Z,96487.97
2023-04-21T10:41:44.525Z,96502.47
2023-04-21T10:42:46.424Z,96493.47
2023-04-21T10:43:51.036Z,96495.59
2023-04-21T10:44:58.618Z,96487.59
2023-04-21T10:46:00.579Z,96509.50
2023-04-21T10:47:02.335Z,96488.75
2023-04-21T10:48:13.619Z,96492.09
2023-04-21T10:49:21.183Z,96483.09
2023-04-21T10:50:29.867Z,96488.06
2023-04-21T10:51:33.354Z,96482.25
2023-04-21T10:52:35.095Z,96485.75
2023-04-21T10:53:43.837Z,96484.13
2023-04-21T10:54:50.139Z,96486.28
2023-04-21T10:55:53.181Z,96488.69
2023-04-21T10:56:56.132Z,96483.50
2023-04-21T10:57:59.380Z,96487.72
2023-04-21T10:59:01.414Z,96488.91
2023-04-21T11:00:07.241Z,96483.44
2023-04-21T11:01:09.151Z,96493.41
2023-04-21T11:02:15.162Z,96484.63
2023-04-21T11:03:17.282Z,96495.59
2023-04-21T11:04:22.195Z,96483.09
2023-04-21T11:05:31.812Z,96484.50
2023-04-21T11:06:33.656Z,96490.72
2023-04-21T11:07:35.580Z,96490.16
2023-04-21T11:08:54.891Z,96479.88
2023-04-21T11:09:58.312Z,96488.44
2023-04-21T11:11:00.144Z,96488.44
2023-04-21T11:12:05.106Z,96480.31
2023-04-21T11:13:08.063Z,96484.84
2023-04-21T11:14:09.877Z,96486.50
2023-04-21T11:15:13.584Z,96482.75
2023-04-21T11:16:15.476Z,96476.03
2023-04-21T11:17:18.336Z,96480.66
2023-04-21T11:18:20.064Z,96482.47
2023-04-21T11:19:26.153Z,96473.72
2023-04-21T11:20:28.050Z,96469.94
2023-04-21T11:21:30.329Z,96482.25
2023-04-21T11:22:32.902Z,96479.59
2023-04-21T11:23:34.727Z,96487.09
2023-04-21T11:24:36.693Z,96481.25
2023-04-21T11:25:38.525Z,96479.38
2023-04-21T11:26:41.247Z,96491.97
2023-04-21T11:27:43.036Z,96484.69
2023-04-21T11:28:47.816Z,96490.00
2023-04-21T11:29:50.551Z,96483.06
2023-04-21T11:30:52.467Z,96492.25
2023-04-21T11:31:54.596Z,96505.66
2023-04-21T11:32:56.480Z,96495.38
2023-04-21T11:34:01.326Z,96495.41
2023-04-21T11:35:04.023Z,96481.91
2023-04-21T11:36:08.974Z,96486.59
2023-04-21T11:37:14.331Z,96483.94
2023-04-21T11:38:17.134Z,96489.75
2023-04-21T11:39:22.507Z,96480.00
2023-04-21T11:40:24.563Z,96493.97
2023-04-21T11:41:26.359Z,96478.59
2023-04-21T11:42:28.525Z,96486.81
2023-04-21T11:43:30.963Z,96485.72
2023-04-21T11:44:33.807Z,96483.88
2023-04-21T11:45:35.576Z,96485.38
2023-04-21T11:46:37.765Z,96482.22
2023-04-21T11:47:40.175Z,96482.81
2023-04-21T11:48:43.425Z,96492.84
2023-04-21T11:49:50.844Z,96487.66
2023-04-21T11:50:52.647Z,96485.22
2023-04-21T11:51:54.459Z,96474.28
2023-04-21T11:52:56.423Z,96481.75
2023-04-21T11:53:59.083Z,96480.44
2023-04-21T11:55:01.961Z,96487.59
2023-04-21T11:56:03.817Z,96482.59
2023-04-21T11:57:06.420Z,96472.09
2023-04-21T11:58:08.141Z,96479.41
2023-04-21T11:59:14.527Z,96472.16
2023-04-21T12:00:16.684Z,96477.41
2023-04-21T12:01:19.350Z,96475.94
2023-04-21T12:02:23.138Z,96468.31
2023-04-21T12:03:26.589Z,96472.16
2023-04-21T12:04:29.898Z,96477.88
2023-04-21T12:05:36.471Z,96465.38
2023-04-21T12:06:38.272Z,96467.22
2023-04-21T12:07:48.150Z,96461.81
2023-04-21T12:08:54.882Z,96473.28
2023-04-21T12:09:56.716Z,96458.53
2023-04-21T12:10:59.581Z,96472.28
2023-04-21T12:12:05.406Z,96476.13
2023-04-21T12:13:07.177Z,96470.66
2023-04-21T12:14:09.052Z,96464.38
2023-04-21T12:15:12.323Z,96462.84
2023-04-21T12:16:14.123Z,96460.72
2023-04-21T12:17:15.910Z,96459.81
2023-04-21T12:18:17.722Z,96460.38
2023-04-21T12:19:26.762Z,96461.00
2023-04-21T12:20:29.924Z,96454.00
2023-04-21T12:21:32.176Z,96451.13